Time;durP1;ratioP1;P1;durP2;ratioP2;P2;SDS_P1;SDS_P2;PMS_P1;PMS_P2;Temp;Humidity;BMP_temperature;BMP_pressure;BME280_temperature;BME280_humidity;BME280_pressure;Samples;Min_cycle;Max_cycle;Signal;HPM_P1;HPM_P2
2022/03/18 00:00:31;;;;;;;13.20;8.45;;;;;;;0.34;46.17;101628.54;1731640;82;20942;-68
2022/03/18 00:02:53;;;;;;;15.03;7.92;;;;;;;0.36;46.29;101633.26;1729633;82;21044;-65
2022/03/18 00:05:21;;;;;;;12.95;7.67;;;;;;;0.37;46.35;101624.48;1732463;82;21243;-69
2022/03/18 00:07:49;;;;;;;11.57;8.15;;;;;;;0.39;46.32;101623.99;1716236;82;20993;-69
2022/03/18 00:10:18;;;;;;;18.92;8.78;;;;;;;0.38;46.31;101630.13;1732050;82;20990;-68
2022/03/18 00:12:46;;;;;;;13.65;8.70;;;;;;;0.36;46.35;101624.09;1720340;82;21445;-69
2022/03/18 00:15:14;;;;;;;12.25;8.20;;;;;;;0.32;46.42;101624.64;1731939;82;20931;-68
2022/03/18 00:17:42;;;;;;;10.90;7.90;;;;;;;0.28;46.59;101626.13;1727664;82;21214;-69
2022/03/18 00:20:12;;;;;;;14.10;7.97;;;;;;;0.22;46.62;101624.57;1722286;82;20957;-69
2022/03/18 00:22:42;;;;;;;10.70;7.65;;;;;;;0.19;46.64;101627.73;1731077;82;20977;-68
2022/03/18 00:25:11;;;;;;;11.63;7.65;;;;;;;0.16;46.63;101630.48;1731660;82;21017;-69
2022/03/18 00:27:39;;;;;;;11.28;8.35;;;;;;;0.13;46.69;101626.66;1728129;82;21021;-68
2022/03/18 00:30:09;;;;;;;11.18;8.20;;;;;;;0.13;46.73;101629.28;1730842;82;21385;-70
2022/03/18 00:32:39;;;;;;;13.13;8.23;;;;;;;0.09;46.88;101631.58;1727651;82;20878;-69
2022/03/18 00:35:08;;;;;;;14.65;8.25;;;;;;;0.06;47.05;101636.91;1731966;82;20878;-70
2022/03/18 00:37:40;;;;;;;15.30;8.95;;;;;;;0.05;47.10;101636.09;1728189;82;21075;-68
2022/03/18 00:40:09;;;;;;;15.30;9.68;;;;;;;0.02;47.26;101630.09;1730734;82;21015;-68
2022/03/18 00:42:37;;;;;;;14.38;9.48;;;;;;;0.01;47.44;101633.16;1710597;83;21252;-69
2022/03/18 00:45:06;;;;;;;14.50;9.85;;;;;;;-0.01;47.72;101630.60;1710815;83;20856;-69
2022/03/18 00:53:06;;;;;;;;;;;;;;;-0.04;47.98;101635.94;1700653;83;20931;-67
2022/03/18 00:55:34;;;;;;;12.93;8.65;;;;;;;-0.06;47.67;101632.97;1710038;83;21257;-69
2022/03/18 00:58:02;;;;;;;11.28;8.58;;;;;;;-0.08;47.42;101636.09;1697263;83;20927;-69
2022/03/18 01:00:30;;;;;;;14.43;9.13;;;;;;;-0.11;47.39;101637.50;1695633;83;21509;-69
2022/03/18 01:02:57;;;;;;;11.18;8.20;;;;;;;-0.12;47.27;101639.70;1689134;83;20927;-68
2022/03/18 01:05:27;;;;;;;13.83;9.38;;;;;;;-0.16;47.55;101640.25;1710948;83;21533;-69
2022/03/18 01:07:54;;;;;;;18.77;10.72;;;;;;;-0.19;47.98;101637.76;1707537;83;21493;-68
2022/03/18 01:10:23;;;;;;;16.82;10.20;;;;;;;-0.21;48.40;101642.16;1695926;83;21565;-68
2022/03/18 01:12:50;;;;;;;12.90;8.73;;;;;;;-0.24;48.72;101643.59;1704274;83;21065;-68
2022/03/18 01:15:17;;;;;;;14.00;8.73;;;;;;;-0.25;48.88;101639.70;1711077;83;21014;-68
2022/03/18 01:17:45;;;;;;;15.08;8.93;;;;;;;-0.28;48.95;101639.35;1708884;83;20919;-67
2022/03/18 01:20:13;;;;;;;11.12;8.15;;;;;;;-0.27;49.01;101634.98;1696134;83;22066;-67
2022/03/18 01:22:40;;;;;;;11.97;8.98;;;;;;;-0.26;49.09;101637.53;1707440;83;20908;-67
2022/03/18 01:25:09;;;;;;;13.72;9.68;;;;;;;-0.25;49.14;101644.48;1710776;83;20895;-69
2022/03/18 01:27:36;;;;;;;12.10;8.38;;;;;;;-0.25;49.19;101640.56;1710042;83;20872;-70
2022/03/18 01:30:05;;;;;;;15.53;9.75;;;;;;;-0.24;49.20;101636.20;1698228;83;21505;-67
2022/03/18 01:32:33;;;;;;;13.75;8.65;;;;;;;-0.26;49.13;101641.45;1706956;83;21218;-68
2022/03/18 01:35:01;;;;;;;13.13;8.88;;;;;;;-0.29;49.14;101640.27;1710749;83;20974;-68
2022/03/18 01:37:28;;;;;;;14.75;9.63;;;;;;;-0.33;49.06;101641.27;1710796;83;20939;-66
2022/03/18 01:39:56;;;;;;;13.40;9.10;;;;;;;-0.35;49.14;101640.47;1688860;83;20955;-68
2022/03/18 01:42:23;;;;;;;10.55;8.13;;;;;;;-0.37;49.20;101641.42;1700331;83;20955;-69
2022/03/18 01:44:51;;;;;;;14.83;9.55;;;;;;;-0.39;49.23;101645.38;1710475;83;22146;-68
2022/03/18 01:47:19;;;;;;;12.45;9.08;;;;;;;-0.40;49.35;101646.74;1710781;83;21000;-67
2022/03/18 01:49:47;;;;;;;13.90;9.43;;;;;;;-0.43;49.45;101646.39;1705811;83;20936;-68
2022/03/18 01:52:14;;;;;;;12.88;9.43;;;;;;;-0.47;49.52;101648.68;1711860;83;20943;-69
2022/03/18 01:54:44;;;;;;;11.63;8.85;;;;;;;-0.48;49.57;101648.74;1709918;83;21038;-69
2022/03/18 01:57:13;;;;;;;12.58;8.85;;;;;;;-0.49;49.62;101649.63;1711052;83;21301;-72
2022/03/18 01:59:40;;;;;;;15.30;9.50;;;;;;;-0.46;49.66;101655.63;1705393;83;21029;-70
2022/03/18 02:02:08;;;;;;;16.00;9.45;;;;;;;-0.47;49.74;101659.62;1710765;83;20891;-66
2022/03/18 02:04:36;;;;;;;13.22;9.58;;;;;;;-0.47;49.75;101664.84;1709890;83;20927;-69
2022/03/18 02:07:05;;;;;;;14.25;9.55;;;;;;;-0.50;49.90;101671.47;1703734;83;20868;-67
2022/03/18 02:09:35;;;;;;;14.68;9.10;;;;;;;-0.53;50.10;101668.50;1702368;83;20975;-68
2022/03/18 02:12:04;;;;;;;12.03;9.13;;;;;;;-0.56;50.39;101677.74;1710657;83;20979;-71
2022/03/18 02:14:38;;;;;;;15.90;9.75;;;;;;;-0.60;50.64;101674.84;1701507;83;20982;-67
2022/03/18 02:17:09;;;;;;;11.00;8.33;;;;;;;-0.63;50.89;101673.61;1711274;83;20931;-70
2022/03/18 02:19:38;;;;;;;13.10;8.45;;;;;;;-0.67;51.13;101674.59;1695369;83;21504;-69
2022/03/18 02:22:12;;;;;;;13.28;8.88;;;;;;;-0.70;51.35;101678.16;1706849;83;21260;-67
2022/03/18 02:24:42;;;;;;;13.30;8.70;;;;;;;-0.73;51.42;101678.72;1692349;83;20943;-68
2022/03/18 02:27:09;;;;;;;12.60;8.85;;;;;;;-0.74;51.58;101680.92;1711398;83;20884;-67
2022/03/18 02:29:36;;;;;;;13.08;8.60;;;;;;;-0.77;51.78;101683.17;1707558;83;20860;-67
2022/03/18 02:32:05;;;;;;;13.60;8.35;;;;;;;-0.79;51.84;101686.73;1711237;83;21477;-67
2022/03/18 02:34:33;;;;;;;11.53;8.40;;;;;;;-0.81;51.88;101682.02;1710038;83;21254;-67
2022/03/18 02:37:01;;;;;;;11.12;8.45;;;;;;;-0.84;51.90;101686.88;1704969;83;20979;-69
2022/03/18 02:39:28;;;;;;;10.65;8.28;;;;;;;-0.84;51.77;101683.41;1708376;83;20931;-68
2022/03/18 02:41:55;;;;;;;10.80;8.08;;;;;;;-0.86;51.74;101686.52;1715007;83;21466;-68
2022/03/18 02:44:22;;;;;;;13.75;8.83;;;;;;;-0.87;51.73;101685.66;1718480;83;20919;-66
2022/03/18 02:46:50;;;;;;;12.70;8.55;;;;;;;-0.86;51.75;101694.36;1712326;83;21302;-67
2022/03/18 02:49:19;;;;;;;12.37;9.18;;;;;;;-0.84;51.71;101695.17;1698261;83;20943;-71
2022/03/18 02:51:47;;;;;;;12.33;8.40;;;;;;;-0.82;51.71;101695.97;1716411;83;20887;-69
2022/03/18 02:54:14;;;;;;;10.98;7.50;;;;;;;-0.80;51.73;101698.08;1718406;83;20923;-69
2022/03/18 02:56:41;;;;;;;12.75;7.70;;;;;;;-0.79;51.70;101699.80;1715053;83;21461;-67
2022/03/18 02:59:10;;;;;;;11.30;8.88;;;;;;;-0.79;51.69;101706.34;1701810;83;20974;-68
2022/03/18 03:01:39;;;;;;;12.68;8.05;;;;;;;-0.78;51.62;101709.34;1717360;83;20879;-68
2022/03/18 03:04:07;;;;;;;12.55;7.87;;;;;;;-0.79;51.61;101705.89;1718271;83;20859;-69
2022/03/18 03:09:21;;;;;;;11.88;9.10;;;;;;;-0.76;51.68;101706.25;1700587;83;20942;-68
2022/03/18 03:11:49;;;;;;;13.08;9.33;;;;;;;-0.76;51.69;101707.56;1710987;83;20974;-67
2022/03/18 03:14:18;;;;;;;16.32;10.10;;;;;;;-0.77;51.69;101715.84;1718287;83;21003;-69
2022/03/18 03:16:46;;;;;;;13.95;9.58;;;;;;;-0.77;51.73;101714.98;1714533;83;20891;-69
2022/03/18 03:19:14;;;;;;;13.13;9.00;;;;;;;-0.78;51.77;101723.72;1705067;83;20966;-67
2022/03/18 03:21:42;;;;;;;15.03;8.75;;;;;;;-0.81;51.78;101725.97;1715321;83;20903;-68
2022/03/18 03:24:09;;;;;;;15.10;9.40;;;;;;;-0.81;51.75;101727.75;1718397;83;21306;-69
2022/03/18 03:26:36;;;;;;;13.32;9.35;;;;;;;-0.81;51.60;101725.14;1716434;83;20891;-69
2022/03/18 03:29:03;;;;;;;13.35;9.03;;;;;;;-0.81;51.48;101724.66;1706597;83;21007;-67
2022/03/18 03:31:31;;;;;;;14.40;9.73;;;;;;;-0.84;51.41;101731.31;1707358;83;21485;-67
2022/03/18 03:33:58;;;;;;;12.82;9.13;;;;;;;-0.84;51.30;101729.14;1718908;83;20931;-68
2022/03/18 03:36:25;;;;;;;13.48;9.38;;;;;;;-0.85;51.16;101727.41;1718837;83;21271;-69
2022/03/18 03:38:53;;;;;;;11.60;8.28;;;;;;;-0.86;50.95;101730.47;1706167;83;20968;-68
2022/03/18 03:41:22;;;;;;;14.93;10.68;;;;;;;-0.85;50.82;101733.95;1716459;83;21524;-69
2022/03/18 03:43:52;;;;;;;14.90;10.70;;;;;;;-0.85;50.65;101726.11;1679396;83;21032;-68
2022/03/18 03:46:20;;;;;;;15.90;9.73;;;;;;;-0.87;50.64;101726.61;1718378;83;21489;-70
2022/03/18 03:48:48;;;;;;;15.38;10.43;;;;;;;-0.91;50.47;101731.05;1706541;83;21346;-69
2022/03/18 03:51:15;;;;;;;15.85;10.70;;;;;;;-0.93;50.45;101728.08;1714582;83;20987;-69
2022/03/18 03:53:42;;;;;;;14.43;10.60;;;;;;;-0.96;50.37;101736.00;1715445;83;20935;-68
2022/03/18 03:56:09;;;;;;;14.03;10.43;;;;;;;-1.04;50.33;101734.08;1718356;83;21015;-68
2022/03/18 03:58:38;;;;;;;13.88;10.00;;;;;;;-1.05;50.31;101738.89;1707434;83;20975;-66
2022/03/18 04:01:05;;;;;;;13.18;10.28;;;;;;;-1.09;50.31;101739.41;1713320;83;21261;-68
2022/03/18 04:03:32;;;;;;;17.35;10.32;;;;;;;-1.11;50.36;101735.99;1707605;83;20971;-67
2022/03/18 04:06:01;;;;;;;19.60;10.75;;;;;;;-1.13;50.42;101742.16;1718492;83;21007;-67
2022/03/18 04:08:29;;;;;;;18.07;10.93;;;;;;;-1.18;50.47;101741.43;1699073;83;21074;-69
2022/03/18 04:10:58;;;;;;;20.92;10.15;;;;;;;-1.25;50.48;101746.81;1693926;83;21081;-68
2022/03/18 04:13:25;;;;;;;15.23;10.10;;;;;;;-1.34;50.63;101747.52;1703902;83;21251;-68
2022/03/18 04:15:52;;;;;;;14.58;9.58;;;;;;;-1.41;50.77;101746.80;1711841;83;21453;-69
2022/03/18 04:18:20;;;;;;;15.78;11.03;;;;;;;-1.56;51.34;101753.73;1718256;83;21054;-71
2022/03/18 04:20:47;;;;;;;14.85;10.43;;;;;;;-1.56;51.34;101753.73;1711718;83;20903;-71
2022/03/18 04:23:14;;;;;;;16.35;11.33;;;;;;;-1.63;51.57;101757.41;1713603;83;21003;-69
2022/03/18 04:25:42;;;;;;;17.70;12.63;;;;;;;-1.63;51.57;101757.41;1717301;83;21864;-67
2022/03/18 04:28:09;;;;;;;16.80;11.38;;;;;;;-1.66;51.75;101758.78;1718282;83;20948;-67
2022/03/18 04:30:37;;;;;;;15.38;10.48;;;;;;;-1.67;51.83;101767.52;1711454;83;20927;-70
2022/03/18 04:33:06;;;;;;;15.25;11.22;;;;;;;-1.65;52.11;101761.81;1678057;85;20935;-67
2022/03/18 04:35:33;;;;;;;15.90;11.10;;;;;;;-1.60;52.26;101767.77;1628624;88;20923;-71
2022/03/18 04:38:00;;;;;;;15.10;10.38;;;;;;;-1.48;52.26;101768.75;1662256;85;21555;-69
2022/03/18 04:40:27;;;;;;;17.00;10.48;;;;;;;-1.30;52.16;101767.41;1712806;83;20967;-70
2022/03/18 04:42:55;;;;;;;18.98;11.25;;;;;;;-1.08;51.87;101761.17;1709833;83;20978;-69
2022/03/18 04:45:23;;;;;;;21.40;12.47;;;;;;;-0.78;51.52;101770.76;1704914;83;20950;-70
2022/03/18 04:47:50;;;;;;;18.23;12.45;;;;;;;-0.49;51.56;101769.91;1707664;83;21616;-68
2022/03/18 04:50:18;;;;;;;19.42;12.47;;;;;;;-0.20;51.18;101777.75;1709039;83;22188;-69
2022/03/18 04:52:46;;;;;;;16.02;11.03;;;;;;;0.09;50.75;101775.09;1703996;83;20919;-67
2022/03/18 04:55:13;;;;;;;18.23;11.43;;;;;;;0.38;50.40;101782.00;1707749;83;21021;-67
2022/03/18 04:57:40;;;;;;;22.67;12.55;;;;;;;0.69;49.79;101772.66;1711892;83;21021;-68
2022/03/18 05:00:10;;;;;;;23.42;14.65;;;;;;;1.02;49.20;101778.88;1711500;83;21461;-67
2022/03/18 05:02:37;;;;;;;22.48;14.30;;;;;;;1.33;48.62;101773.38;1711984;83;21328;-70
2022/03/18 05:05:08;;;;;;;26.07;14.78;;;;;;;1.62;48.08;101774.45;1702027;83;20899;-69
2022/03/18 05:07:39;;;;;;;28.80;15.38;;;;;;;1.96;47.55;101775.31;1711740;83;21017;-69
2022/03/18 05:10:09;;;;;;;29.30;15.48;;;;;;;2.29;47.08;101776.62;1711919;83;20996;-71
2022/03/18 05:12:38;;;;;;;34.63;15.43;;;;;;;2.63;46.47;101780.47;1711771;83;20896;-70
2022/03/18 05:15:09;;;;;;;47.35;17.17;;;;;;;2.98;45.86;101774.53;1705412;83;21419;-66
2022/03/18 05:17:39;;;;;;;27.55;16.10;;;;;;;3.35;45.08;101779.89;1709408;83;20856;-68
2022/03/18 05:20:08;;;;;;;33.30;17.67;;;;;;;3.71;44.44;101777.34;1712219;83;20907;-68
2022/03/18 05:22:36;;;;;;;25.25;16.70;;;;;;;4.06;43.99;101787.08;1711975;83;21482;-70
2022/03/18 05:25:04;;;;;;;32.23;16.55;;;;;;;4.47;43.34;101784.20;1713108;83;21517;-69
2022/03/18 05:27:31;;;;;;;27.17;15.70;;;;;;;4.81;42.65;101790.34;1695850;83;21305;-69
2022/03/18 05:29:58;;;;;;;29.12;16.32;;;;;;;5.18;42.04;101787.98;1713130;83;21415;-70
2022/03/18 05:32:25;;;;;;;36.50;15.80;;;;;;;5.54;41.42;101789.98;1708053;83;20983;-70
2022/03/18 05:34:52;;;;;;;29.95;16.30;;;;;;;5.88;40.72;101792.13;1712161;83;21111;-68
2022/03/18 05:37:20;;;;;;;35.70;14.90;;;;;;;6.20;40.18;101790.70;1699772;83;21431;-69
2022/03/18 05:39:47;;;;;;;23.73;15.25;;;;;;;6.49;39.84;101791.67;1711993;83;21268;-68
2022/03/18 05:42:14;;;;;;;23.07;15.53;;;;;;;6.82;39.39;101788.41;1713295;83;20986;-66
2022/03/18 05:44:41;;;;;;;26.95;16.75;;;;;;;7.23;38.95;101784.59;1702112;83;20947;-71
2022/03/18 05:47:08;;;;;;;32.63;19.77;;;;;;;7.69;38.07;101797.66;1701317;83;21458;-68
2022/03/18 05:49:37;;;;;;;35.43;20.45;;;;;;;8.00;37.07;101790.28;1712116;83;21494;-67
2022/03/18 05:52:05;;;;;;;35.98;21.17;;;;;;;8.25;36.44;101796.20;1713189;83;21236;-68
2022/03/18 05:54:34;;;;;;;34.35;20.43;;;;;;;8.46;35.96;101800.60;1711997;83;20994;-68
2022/03/18 05:57:02;;;;;;;34.05;19.17;;;;;;;8.69;35.67;101802.11;1701308;83;21003;-68
2022/03/18 05:59:32;;;;;;;34.40;20.25;;;;;;;8.98;35.52;101803.28;1708039;83;20955;-66
2022/03/18 06:02:00;;;;;;;31.52;21.17;;;;;;;9.39;34.96;101801.75;1703712;83;21445;-67
2022/03/18 06:04:28;;;;;;;23.85;18.95;;;;;;;9.79;34.42;101804.17;1718488;83;21948;-67
2022/03/18 06:06:57;;;;;;;28.25;19.30;;;;;;;10.21;33.34;101796.73;1698391;83;20986;-70
2022/03/18 06:12:11;;;;;;;26.10;19.17;;;;;;;10.84;31.87;101790.63;1718628;83;21018;-70
2022/03/18 06:14:39;;;;;;;22.02;17.85;;;;;;;11.20;31.04;101799.41;1717393;83;20887;-71
2022/03/18 06:17:07;;;;;;;23.10;16.57;;;;;;;11.44;30.55;101790.38;1711971;83;21409;-70
2022/03/18 06:19:34;;;;;;;22.13;15.98;;;;;;;11.73;29.89;101802.26;1713442;83;20896;-68
2022/03/18 06:22:02;;;;;;;22.10;17.00;;;;;;;11.98;29.18;101805.16;1703897;83;20958;-71
2022/03/18 06:24:29;;;;;;;19.57;16.50;;;;;;;12.12;29.16;101806.21;1704088;83;20962;-67
2022/03/18 06:26:56;;;;;;;20.12;15.98;;;;;;;12.25;29.01;101802.09;1692539;83;21002;-69
2022/03/18 06:29:24;;;;;;;18.92;16.50;;;;;;;12.42;29.21;101807.36;1718417;83;21214;-68
2022/03/18 06:31:52;;;;;;;20.57;15.00;;;;;;;12.63;28.83;101805.59;1717451;83;21077;-71
2022/03/18 06:34:23;;;;;;;16.17;14.25;;;;;;;12.71;28.42;101805.31;1715921;83;20895;-67
2022/03/18 06:36:51;;;;;;;18.32;14.78;;;;;;;12.85;27.84;101810.33;1713660;83;20922;-68
2022/03/18 06:39:19;;;;;;;16.00;14.33;;;;;;;13.03;27.18;101807.95;1711493;83;20894;-69
2022/03/18 06:41:47;;;;;;;14.18;12.63;;;;;;;13.16;27.06;101809.98;1707194;83;21302;-68
2022/03/18 06:44:14;;;;;;;14.93;10.95;;;;;;;13.25;26.60;101809.17;1708553;83;20907;-68
2022/03/18 06:46:42;;;;;;;11.68;10.48;;;;;;;13.45;26.26;101810.15;1717393;83;21434;-68
2022/03/18 06:49:09;;;;;;;12.30;11.00;;;;;;;13.66;25.79;101817.61;1701268;83;21405;-71
2022/03/18 06:51:37;;;;;;;25.68;11.60;;;;;;;13.86;25.17;101816.73;1717437;83;20887;-69
2022/03/18 06:54:04;;;;;;;19.20;12.25;;;;;;;14.03;24.91;101813.88;1718320;83;21264;-71
2022/03/18 06:56:31;;;;;;;13.50;11.00;;;;;;;14.16;24.84;101809.98;1717610;83;21590;-67
2022/03/18 06:58:59;;;;;;;15.20;10.72;;;;;;;14.33;24.36;101817.88;1717612;83;20947;-69
2022/03/18 07:01:26;;;;;;;16.15;11.53;;;;;;;14.51;24.04;101814.88;1713060;83;21013;-69
2022/03/18 07:03:55;;;;;;;13.30;10.05;;;;;;;14.65;23.91;101818.98;1718428;83;20990;-70
2022/03/18 07:06:22;;;;;;;13.95;11.33;;;;;;;14.75;23.78;101822.02;1718788;83;21180;-69
2022/03/18 07:08:49;;;;;;;18.48;10.93;;;;;;;14.83;23.60;101823.47;1717533;83;20966;-69
2022/03/18 07:11:17;;;;;;;11.40;10.00;;;;;;;14.92;23.55;101823.61;1718473;83;21435;-69
2022/03/18 07:13:46;;;;;;;14.07;10.70;;;;;;;15.02;23.46;101813.73;1717381;83;21452;-70
2022/03/18 07:19:00;;;;;;;12.63;9.83;;;;;;;15.26;23.11;101822.16;1718543;83;21175;-70
2022/03/18 07:21:28;;;;;;;12.28;9.50;;;;;;;15.37;22.67;101824.69;1718383;83;21562;-69
2022/03/18 07:23:55;;;;;;;10.38;8.60;;;;;;;15.46;22.77;101820.33;1718396;83;20978;-69
2022/03/18 07:26:22;;;;;;;9.88;8.63;;;;;;;15.61;22.50;101825.08;1703397;83;21010;-70
2022/03/18 07:28:49;;;;;;;10.30;8.58;;;;;;;15.74;21.46;101829.63;1699377;83;21509;-70
2022/03/18 07:31:17;;;;;;;9.13;8.23;;;;;;;15.84;21.17;101829.58;1702551;83;21864;-68
2022/03/18 07:33:44;;;;;;;9.70;8.80;;;;;;;15.82;21.11;101825.71;1691750;83;20950;-67
2022/03/18 07:36:11;;;;;;;11.22;9.18;;;;;;;15.89;21.26;101827.30;1693843;83;21034;-70
2022/03/18 07:38:39;;;;;;;11.28;8.68;;;;;;;15.93;21.14;101824.16;1692686;83;21473;-69
2022/03/18 07:41:08;;;;;;;8.00;7.17;;;;;;;16.05;20.93;101825.67;1695669;83;21073;-70
2022/03/18 07:43:35;;;;;;;8.83;7.67;;;;;;;16.26;20.64;101822.72;1693620;83;21344;-68
2022/03/18 07:46:02;;;;;;;13.58;8.40;;;;;;;16.41;20.34;101823.04;1696930;83;21039;-68
2022/03/18 07:48:30;;;;;;;15.75;8.33;;;;;;;16.57;20.01;101825.94;1689073;83;21038;-69
2022/03/18 07:50:57;;;;;;;10.38;7.97;;;;;;;16.64;19.92;101827.85;1652144;85;21179;-69
2022/03/18 07:53:24;;;;;;;10.08;6.70;;;;;;;16.79;19.90;101826.80;1635540;86;21041;-71
2022/03/18 07:55:52;;;;;;;8.68;5.20;;;;;;;17.09;19.82;101828.25;1696143;83;22197;-72
2022/03/18 07:58:19;;;;;;;7.65;5.78;;;;;;;17.36;18.65;101826.78;1689643;83;20959;-70
2022/03/18 08:00:47;;;;;;;10.58;7.75;;;;;;;17.49;18.30;101815.10;1685480;83;21017;-70
2022/03/18 08:03:16;;;;;;;11.73;7.12;;;;;;;17.75;18.39;101822.66;1683531;83;21071;-67
2022/03/18 08:05:48;;;;;;;14.00;6.50;;;;;;;17.98;18.19;101824.80;1680800;83;20930;-69
2022/03/18 08:08:22;;;;;;;7.65;6.12;;;;;;;18.01;17.41;101837.44;1706870;83;21168;-68
2022/03/18 08:10:51;;;;;;;17.92;7.12;;;;;;;18.07;17.39;101828.70;1709237;83;21010;-72
2022/03/18 08:13:18;;;;;;;8.65;6.20;;;;;;;18.20;17.21;101829.58;1709390;83;20935;-69
2022/03/18 08:15:47;;;;;;;7.30;5.90;;;;;;;18.36;17.20;101832.33;1696807;83;21502;-70
2022/03/18 08:18:15;;;;;;;5.87;5.33;;;;;;;18.56;17.03;101829.73;1711172;83;21474;-70
2022/03/18 08:20:43;;;;;;;9.98;5.47;;;;;;;18.73;16.58;101834.63;1705708;83;21293;-69
2022/03/18 08:23:12;;;;;;;8.78;5.25;;;;;;;18.90;16.23;101827.73;1703373;83;20971;-73
2022/03/18 08:25:40;;;;;;;8.45;4.85;;;;;;;19.14;15.81;101828.23;1709814;83;20935;-69
2022/03/18 08:28:07;;;;;;;7.95;5.45;;;;;;;19.29;15.47;101831.11;1711046;83;21448;-69
2022/03/18 08:30:35;;;;;;;7.80;4.95;;;;;;;19.29;15.16;101827.06;1692458;83;21002;-65
2022/03/18 08:33:03;;;;;;;5.87;4.53;;;;;;;19.26;15.36;101830.95;1696957;83;21231;-66
2022/03/18 08:35:30;;;;;;;6.55;4.78;;;;;;;19.25;14.97;101833.80;1698388;83;21074;-69
2022/03/18 08:38:00;;;;;;;5.42;4.83;;;;;;;19.04;14.97;101832.97;1676533;83;20896;-66
2022/03/18 08:40:32;;;;;;;5.30;4.80;;;;;;;18.93;14.94;101836.83;1699278;83;20955;-65
2022/03/18 08:43:04;;;;;;;4.80;4.30;;;;;;;18.96;14.98;101831.61;1690300;82;21077;-68
2022/03/18 08:45:32;;;;;;;4.62;4.22;;;;;;;19.04;14.77;101832.97;1706844;83;21243;-65
2022/03/18 08:47:59;;;;;;;5.10;4.00;;;;;;;19.11;14.80;101829.41;1711225;83;20860;-65
2022/03/18 08:50:27;;;;;;;5.85;4.70;;;;;;;19.11;14.85;101829.41;1706087;83;20996;-66
2022/03/18 08:52:56;;;;;;;5.12;4.12;;;;;;;19.19;14.60;101826.41;1708066;84;21071;-66
2022/03/18 08:55:26;;;;;;;9.65;4.08;;;;;;;19.35;14.39;101826.36;1702370;83;20986;-67
2022/03/18 08:57:53;;;;;;;4.62;4.22;;;;;;;19.45;14.47;101823.03;1697097;84;21239;-66
2022/03/18 09:00:21;;;;;;;4.97;4.47;;;;;;;19.54;14.31;101825.53;1708551;84;21559;-68
2022/03/18 09:02:48;;;;;;;7.40;4.08;;;;;;;19.63;14.30;101825.01;1705717;84;21506;-67
2022/03/18 09:05:16;;;;;;;8.93;5.25;;;;;;;19.70;14.12;101823.30;1707888;84;20944;-66
2022/03/18 09:07:46;;;;;;;7.90;4.67;;;;;;;19.70;14.05;101833.59;1706948;84;20927;-67
2022/03/18 09:10:13;;;;;;;7.55;4.15;;;;;;;19.58;14.17;101824.66;1708540;84;21276;-66
2022/03/18 09:12:47;;;;;;;5.65;4.97;;;;;;;19.48;13.98;101828.91;1707636;84;20959;-65
2022/03/18 09:15:16;;;;;;;4.95;4.30;;;;;;;19.41;13.99;101828.42;1694031;84;20932;-67
2022/03/18 09:17:43;;;;;;;6.78;4.67;;;;;;;19.46;14.18;101827.39;1708057;84;21000;-66
2022/03/18 09:20:10;;;;;;;7.12;4.95;;;;;;;19.52;14.23;101827.56;1708724;84;20891;-67
2022/03/18 09:22:37;;;;;;;5.28;4.78;;;;;;;19.70;13.85;101833.59;1707595;84;21236;-68
2022/03/18 09:25:06;;;;;;;8.23;5.20;;;;;;;19.77;13.96;101827.48;1708615;84;20967;-69
2022/03/18 09:27:34;;;;;;;9.15;4.85;;;;;;;19.85;13.76;101834.20;1707600;84;20943;-68
2022/03/18 09:30:04;;;;;;;15.15;5.40;;;;;;;19.81;13.87;101832.38;1692457;84;21073;-68
2022/03/18 09:32:31;;;;;;;4.78;4.30;;;;;;;19.93;14.07;101836.38;1697703;83;20934;-68
2022/03/18 09:34:59;;;;;;;5.08;4.40;;;;;;;20.25;13.88;101832.73;1695955;83;21771;-68
2022/03/18 09:37:26;;;;;;;5.25;4.70;;;;;;;20.52;13.69;101830.87;1705595;83;20998;-69
2022/03/18 09:39:53;;;;;;;9.15;4.47;;;;;;;20.65;13.52;101840.59;1710467;83;21540;-71
2022/03/18 09:42:22;;;;;;;6.10;4.95;;;;;;;20.76;13.59;101833.42;1701021;83;20994;-71
2022/03/18 09:44:49;;;;;;;5.92;4.15;;;;;;;20.91;13.22;101836.17;1715748;83;21478;-71
2022/03/18 09:47:16;;;;;;;4.42;3.67;;;;;;;20.94;13.22;101832.60;1718486;83;21322;-70
2022/03/18 09:49:45;;;;;;;6.65;4.10;;;;;;;20.88;12.91;101836.02;1701031;83;20966;-70
2022/03/18 09:52:14;;;;;;;7.78;4.20;;;;;;;20.72;12.33;101841.58;1704771;83;20955;-69
2022/03/18 09:54:41;;;;;;;7.65;4.22;;;;;;;20.47;12.39;101840.53;1703073;83;21496;-70
2022/03/18 09:57:09;;;;;;;4.47;4.08;;;;;;;20.30;12.95;101834.39;1708178;83;20954;-70
2022/03/18 09:59:37;;;;;;;6.20;4.40;;;;;;;20.24;12.89;101832.39;1712974;83;21157;-70
2022/03/18 10:02:26;;;;;;;7.40;4.85;;;;;;;20.15;13.20;101836.13;1706825;83;20935;-71
2022/03/18 10:05:01;;;;;;;10.15;4.62;;;;;;;20.12;13.14;101827.87;1702484;83;21062;-70
2022/03/18 10:07:28;;;;;;;4.75;4.22;;;;;;;20.12;12.83;101831.08;1690185;83;20958;-70
2022/03/18 10:10:15;;;;;;;10.10;5.00;;;;;;;19.83;12.93;101837.09;1701512;83;20951;-70
2022/03/18 10:12:48;;;;;;;5.05;4.20;;;;;;;19.52;13.05;101838.86;1702190;83;20981;-69
2022/03/18 10:15:15;;;;;;;4.95;4.28;;;;;;;19.09;13.25;101835.50;1696991;83;22256;-65
2022/03/18 10:17:52;;;;;;;7.08;4.15;;;;;;;18.31;14.06;101835.52;1702034;83;20943;-69
2022/03/18 10:20:38;;;;;;;5.10;4.47;;;;;;;17.87;14.35;101832.66;1717789;83;21407;-70
2022/03/18 10:23:23;;;;;;;7.50;4.42;;;;;;;17.57;14.65;101837.20;1718358;83;20926;-68
2022/03/18 10:25:56;;;;;;;5.80;4.33;;;;;;;17.29;14.75;101836.47;1717480;83;21287;-68
2022/03/18 10:28:37;;;;;;;;;;;;;;;17.01;15.10;101838.44;1720591;83;21568;-68
2022/03/18 10:31:21;;;;;;;8.60;5.17;;;;;;;16.54;15.30;101833.80;1718394;82;20169;-69
2022/03/18 10:39:35;;;;;;;5.60;5.00;;;;;;;15.39;16.28;101833.42;1718632;83;21259;-69
2022/03/18 10:42:11;;;;;;;5.55;5.00;;;;;;;15.15;16.53;101827.67;1699274;83;20887;-70
2022/03/18 10:45:00;;;;;;;5.83;4.67;;;;;;;14.99;16.61;101836.30;1707171;83;20927;-70
2022/03/18 10:47:41;;;;;;;6.40;4.42;;;;;;;14.89;16.63;101837.32;1718420;83;20907;-68
2022/03/18 10:50:19;;;;;;;5.62;4.37;;;;;;;14.68;16.26;101832.92;1700989;83;20887;-68
2022/03/18 10:52:51;;;;;;;5.00;4.08;;;;;;;14.41;16.44;101830.09;1717748;83;21247;-68
2022/03/18 10:55:30;;;;;;;4.70;4.17;;;;;;;14.19;16.90;101833.80;1718314;83;21409;-69
2022/03/18 10:58:16;;;;;;;6.65;4.70;;;;;;;14.03;17.14;101831.28;1696832;83;21473;-69
2022/03/18 11:00:48;;;;;;;5.95;4.87;;;;;;;13.77;17.48;101823.36;1717445;83;20962;-69
2022/03/18 11:03:16;;;;;;;5.15;4.65;;;;;;;13.63;17.96;101827.75;1718347;83;20891;-69
2022/03/18 11:05:47;;;;;;;5.50;4.85;;;;;;;13.55;18.10;101829.27;1717372;83;21256;-69
2022/03/18 11:08:21;;;;;;;6.28;4.70;;;;;;;13.48;18.33;101821.41;1718379;83;20899;-69
2022/03/18 11:13:51;;;;;;;4.55;3.92;;;;;;;13.18;18.46;101828.06;1717547;83;20903;-69
2022/03/18 11:16:27;;;;;;;6.67;4.87;;;;;;;13.07;18.12;101828.11;1718675;83;20934;-69
2022/03/18 11:18:54;;;;;;;6.05;4.03;;;;;;;12.91;17.94;101825.00;1717677;83;21293;-69
2022/03/18 11:21:25;;;;;;;4.97;4.22;;;;;;;12.78;18.19;101823.00;1718176;83;21046;-69
2022/03/18 11:23:55;;;;;;;5.95;4.30;;;;;;;12.63;18.42;101819.80;1717569;83;21054;-68
2022/03/18 11:26:21;;;;;;;4.62;4.20;;;;;;;12.45;18.59;101809.30;1718169;83;21023;-69
2022/03/18 11:29:09;;;;;;;4.60;3.77;;;;;;;12.29;18.86;101817.72;1717551;83;21185;-69
2022/03/18 11:31:36;;;;;;;7.05;4.65;;;;;;;12.27;19.02;101814.33;1717528;83;21243;-68
2022/03/18 11:34:14;;;;;;;4.72;4.20;;;;;;;12.23;19.14;101814.20;1718517;83;21489;-68
2022/03/18 11:36:50;;;;;;;5.97;4.17;;;;;;;12.19;19.06;101810.58;1717385;83;21574;-70
2022/03/18 11:39:23;;;;;;;5.97;4.60;;;;;;;12.13;19.09;101815.92;1715397;83;20891;-69
2022/03/18 11:41:53;;;;;;;7.33;4.25;;;;;;;12.09;19.11;101805.16;1717680;83;21024;-68
2022/03/18 11:44:58;;;;;;;4.75;4.33;;;;;;;12.07;18.89;101804.41;1715798;83;21247;-68
2022/03/18 11:47:31;;;;;;;5.65;4.15;;;;;;;12.00;18.84;101804.55;1711668;83;21199;-69
2022/03/18 11:49:58;;;;;;;7.08;4.42;;;;;;;11.91;18.84;101802.63;1689985;83;20983;-68